createdAt,value
2019-01-06T00:00:17.512Z,16.6
2019-01-06T00:05:17.351Z,20.9
2019-01-06T00:10:17.467Z,22.4
2019-01-06T00:15:17.377Z,22.2
2019-01-06T00:20:17.403Z,21
2019-01-06T00:25:17.292Z,21.2
2019-01-06T00:30:17.125Z,21.2
2019-01-06T00:35:16.944Z,16.2
2019-01-06T00:40:16.980Z,20.8
2019-01-06T00:45:16.798Z,21.6
2019-01-06T00:50:17.883Z,20.6
2019-01-06T00:55:17.696Z,21.2
2019-01-06T01:00:17.555Z,12.9
2019-01-06T01:05:17.537Z,20.2
2019-01-06T01:10:17.549Z,9.2
2019-01-06T01:15:17.392Z,16.3
2019-01-06T01:20:17.384Z,20.2
2019-01-06T01:25:17.307Z,20.8
2019-01-06T01:30:17.136Z,19.5
2019-01-06T01:35:17.023Z,12.4
2019-01-06T01:40:17.037Z,18.8
2019-01-06T01:45:16.879Z,18.6
2019-01-06T01:50:17.936Z,18.3
2019-01-06T01:55:16.887Z,17.8
2019-01-06T02:00:17.771Z,16.3
2019-01-06T02:05:17.587Z,16.1
2019-01-06T02:10:17.643Z,17.2
2019-01-06T02:15:17.572Z,10.9
2019-01-06T02:20:17.629Z,15.9
2019-01-06T02:25:17.503Z,9.1
2019-01-06T02:30:17.366Z,15.4
2019-01-06T02:35:17.406Z,9.9
2019-01-06T02:40:17.469Z,8.3
2019-01-06T02:45:17.320Z,15
2019-01-06T02:50:17.193Z,15.4
2019-01-06T02:55:17.040Z,10.4
2019-01-06T03:00:16.923Z,14.3
2019-01-06T03:05:16.769Z,14.1
2019-01-06T03:10:16.977Z,15.1
2019-01-06T03:15:16.912Z,14.2
2019-01-06T03:20:16.903Z,9.7
2019-01-06T03:25:19.454Z,14.6
2019-01-06T03:30:17.357Z,15.8
2019-01-06T03:35:17.187Z,13.5
2019-01-06T03:40:17.267Z,14.7
2019-01-06T03:45:17.106Z,13.7
2019-01-06T03:50:16.980Z,7.9
2019-01-06T03:55:16.805Z,14.6
2019-01-06T04:00:17.958Z,14.5
2019-01-06T04:05:16.791Z,13.7
2019-01-06T04:10:16.801Z,11.1
2019-01-06T04:15:17.747Z,14.2
2019-01-06T04:20:16.784Z,13.8
2019-01-06T04:25:17.711Z,14.2
2019-01-06T04:30:17.516Z,7.4
2019-01-06T04:35:17.369Z,14.5
2019-01-06T04:40:17.357Z,11.8
2019-01-06T04:45:17.195Z,13.7
2019-01-06T04:50:17.044Z,11.4
2019-01-06T04:55:16.865Z,15.1
2019-01-06T05:00:17.779Z,7.1
2019-01-06T05:05:17.599Z,14.1
2019-01-06T05:10:17.964Z,15.1
2019-01-06T05:15:16.791Z,15.3
2019-01-06T05:20:16.862Z,14.9
2019-01-06T05:25:17.716Z,14.5
2019-01-06T05:30:17.520Z,12
2019-01-06T05:35:17.383Z,14.7
2019-01-06T05:40:17.412Z,10.7
2019-01-06T05:45:17.254Z,14.2
2019-01-06T05:50:17.093Z,14.6
2019-01-06T05:55:16.959Z,13.9
2019-01-06T06:00:16.785Z,7.1
2019-01-06T06:05:17.668Z,14.1
2019-01-06T06:10:18.204Z,10.2
2019-01-06T06:15:17.065Z,13.4
2019-01-06T06:20:17.035Z,11.4
2019-01-06T06:25:17.151Z,13.6
2019-01-06T06:30:17.008Z,14.1
2019-01-06T06:35:16.920Z,14.8
2019-01-06T06:40:16.992Z,15.7
2019-01-06T06:45:16.800Z,15.1
2019-01-06T06:50:16.842Z,14.5
2019-01-06T06:55:17.930Z,16.2
2019-01-06T07:00:16.748Z,16.4
2019-01-06T07:05:17.924Z,18.3
2019-01-06T07:10:17.280Z,11.4
2019-01-06T07:15:17.448Z,8.3
2019-01-06T07:20:17.516Z,12
2019-01-06T07:25:17.356Z,18.1
2019-01-06T07:30:17.171Z,17.2
2019-01-06T07:35:17.018Z,11.6
2019-01-06T07:40:17.056Z,14.9
2019-01-06T07:45:16.868Z,15.9
2019-01-06T07:50:18.064Z,16.6
2019-01-06T07:55:16.852Z,10.9
2019-01-06T08:00:17.855Z,8.3
2019-01-06T08:05:17.731Z,7
2019-01-06T08:10:16.839Z,11.9
2019-01-06T08:15:17.992Z,8.6
2019-01-06T08:20:17.222Z,11.1
2019-01-06T08:25:17.058Z,7.1
2019-01-06T08:30:16.896Z,11
2019-01-06T08:35:18.032Z,12.7
2019-01-06T08:40:17.176Z,10.6
2019-01-06T08:45:17.035Z,13.4
2019-01-06T08:50:16.851Z,13.1
2019-01-06T08:55:17.771Z,8.3
2019-01-06T09:00:18.875Z,13
2019-01-06T09:05:17.809Z,13.7
2019-01-06T09:10:16.934Z,12.7
2019-01-06T09:15:16.796Z,13.5
2019-01-06T09:20:16.812Z,12.8
2019-01-06T09:25:17.644Z,12.5
2019-01-06T09:30:17.814Z,11.2
2019-01-06T09:35:17.648Z,10.7
2019-01-06T09:40:17.727Z,10.9
2019-01-06T09:45:17.556Z,10.4
2019-01-06T09:50:17.352Z,9.7
2019-01-06T09:55:17.220Z,9.4
2019-01-06T10:00:17.040Z,8.9
2019-01-06T10:05:16.848Z,9
2019-01-06T10:10:16.832Z,9.3
2019-01-06T10:15:17.984Z,7.7
2019-01-06T10:20:16.993Z,7.5
2019-01-06T10:25:17.332Z,7.1
2019-01-06T10:30:17.148Z,7.3
2019-01-06T10:35:17.001Z,3.9
2019-01-06T10:40:17.039Z,6.1
2019-01-06T10:45:16.824Z,6
2019-01-06T10:50:17.826Z,6.2
2019-01-06T10:55:17.711Z,2.3
2019-01-06T11:00:17.484Z,4.5
2019-01-06T11:05:17.350Z,5.4
2019-01-06T11:10:17.601Z,6.1
2019-01-06T11:15:17.597Z,2.6
2019-01-06T11:20:17.564Z,3.1
2019-01-06T11:25:17.403Z,5.6
2019-01-06T11:30:17.233Z,5.3
2019-01-06T11:35:17.016Z,4
2019-01-06T11:40:17.036Z,6
2019-01-06T11:45:16.914Z,3.7
2019-01-06T11:50:16.770Z,6.4
2019-01-06T11:55:17.653Z,7.2
2019-01-06T12:00:17.611Z,7.4
2019-01-06T12:05:17.396Z,4.6
2019-01-06T12:10:17.414Z,8.1
2019-01-06T12:15:17.269Z,7.5
2019-01-06T12:20:17.279Z,8.2
2019-01-06T12:25:17.069Z,3.9
2019-01-06T12:30:16.904Z,8.3
2019-01-06T12:35:17.771Z,4.7
2019-01-06T12:40:17.021Z,8.1
2019-01-06T12:45:17.096Z,7.3
2019-01-06T12:50:16.912Z,5.6
2019-01-06T12:55:16.756Z,7.5
2019-01-06T13:00:17.797Z,8.1
2019-01-06T13:05:17.593Z,6
2019-01-06T13:10:17.851Z,7.8
2019-01-06T13:15:17.836Z,6.6
2019-01-06T13:20:16.815Z,6.7
2019-01-06T13:25:17.680Z,6.6
2019-01-06T13:30:17.492Z,4.2
2019-01-06T13:35:17.329Z,6.7
2019-01-06T13:40:17.344Z,7.1
2019-01-06T13:45:17.201Z,7.7
2019-01-06T13:50:17.075Z,6
2019-01-06T13:55:16.883Z,10.8
2019-01-06T14:00:17.775Z,9.3
2019-01-06T14:05:17.572Z,6.1
2019-01-06T14:10:17.994Z,11.2
2019-01-06T14:15:17.038Z,11.8
2019-01-06T14:20:17.528Z,8.6
2019-01-06T14:25:17.632Z,8.1
2019-01-06T14:30:17.509Z,11.6
2019-01-06T14:35:17.556Z,10.7
2019-01-06T14:40:17.599Z,8.8
2019-01-06T14:45:17.417Z,7.8
2019-01-06T14:50:17.471Z,11.3
2019-01-06T14:55:17.269Z,6.2
2019-01-06T15:00:19.164Z,10.8
2019-01-06T15:05:16.999Z,8.6
2019-01-06T15:10:17.117Z,10.2
2019-01-06T15:15:17.233Z,10.2
2019-01-06T15:20:17.248Z,9.5
2019-01-06T15:25:17.069Z,9.8
2019-01-06T15:30:16.921Z,9.9
2019-01-06T15:35:16.763Z,9.7
2019-01-06T15:40:16.799Z,9.5
2019-01-06T15:45:17.847Z,9.9
2019-01-06T15:50:17.709Z,9.1
2019-01-06T15:55:17.496Z,4.2
2019-01-06T16:00:17.312Z,8.5
2019-01-06T16:05:17.151Z,7.8
2019-01-06T16:10:17.209Z,5.3
2019-01-06T16:15:17.044Z,6.7
2019-01-06T16:20:17.031Z,6.7
2019-01-06T16:25:16.865Z,6.1
2019-01-06T16:30:17.981Z,4.9
2019-01-06T16:35:16.872Z,4.8
2019-01-06T16:40:16.913Z,4.3
2019-01-06T16:45:16.846Z,3.4
2019-01-06T16:50:17.796Z,3.6
2019-01-06T16:55:17.629Z,3.3
2019-01-06T17:00:17.663Z,3.9
2019-01-06T17:05:17.519Z,3.8
2019-01-06T17:10:17.771Z,3.9
2019-01-06T17:15:17.736Z,2.8
2019-01-06T17:20:17.019Z,3.8
2019-01-06T17:25:16.929Z,6.6
2019-01-06T17:30:17.075Z,4.8
2019-01-06T17:35:17.054Z,7.4
2019-01-06T17:40:17.101Z,6.9
2019-01-06T17:45:16.924Z,7.1
2019-01-06T17:50:16.749Z,4.8
2019-01-06T17:55:17.885Z,7
2019-01-06T18:00:17.734Z,7.6
2019-01-06T18:05:17.893Z,7.3
2019-01-06T18:10:22.429Z,7
2019-01-06T18:15:17.673Z,7.5
2019-01-06T18:20:17.960Z,7.8
2019-01-06T18:25:16.932Z,6.7
2019-01-06T18:30:16.738Z,3
2019-01-06T18:35:17.529Z,3.9
